Time;durP1;ratioP1;P1;durP2;ratioP2;P2;SDS_P1;SDS_P2;PMS_P1;PMS_P2;Temp;Humidity;BMP_temperature;BMP_pressure;BME280_temperature;BME280_humidity;BME280_pressure;Samples;Min_cycle;Max_cycle;Signal;HPM_P1;HPM_P2
2022/07/19 00:01:48;;;;;;;3.88;2.83;;;25.90;92.70;;;;;;5078479;28;20396;-71
2022/07/19 00:04:14;;;;;;;5.43;3.10;;;25.90;93.00;;;;;;5083851;28;20081;-71
2022/07/19 00:06:40;;;;;;;5.93;3.67;;;25.90;93.30;;;;;;5081451;28;20021;-71
2022/07/19 00:09:06;;;;;;;6.93;3.35;;;25.80;93.70;;;;;;5095045;28;20051;-71
2022/07/19 00:11:32;;;;;;;8.85;3.38;;;25.80;94.10;;;;;;5084011;28;20116;-71
2022/07/19 00:13:58;;;;;;;6.70;3.38;;;25.70;94.20;;;;;;5089756;28;20060;-71
2022/07/19 00:16:24;;;;;;;5.90;3.80;;;25.70;94.70;;;;;;5088749;28;20026;-71
2022/07/19 00:18:50;;;;;;;5.15;3.70;;;25.60;95.00;;;;;;5092227;28;20020;-70
2022/07/19 00:21:16;;;;;;;6.90;3.08;;;25.60;95.20;;;;;;5083868;28;20492;-71
2022/07/19 00:23:42;;;;;;;4.63;3.65;;;25.50;95.60;;;;;;5093263;28;20107;-71
2022/07/19 00:26:07;;;;;;;7.38;3.92;;;25.50;96.00;;;;;;5093233;28;20016;-71
2022/07/19 00:28:33;;;;;;;7.63;4.03;;;25.50;96.10;;;;;;5095986;28;20388;-71
2022/07/19 00:30:59;;;;;;;6.47;3.35;;;25.50;96.60;;;;;;5087952;28;20024;-73
2022/07/19 00:33:25;;;;;;;6.72;4.15;;;25.50;97.10;;;;;;5090991;28;20114;-72
2022/07/19 00:35:51;;;;;;;5.68;3.50;;;25.50;97.40;;;;;;5088982;28;20138;-71
2022/07/19 00:38:17;;;;;;;5.13;3.67;;;25.50;97.50;;;;;;5092620;28;20020;-72
2022/07/19 00:40:43;;;;;;;7.97;3.85;;;25.50;97.70;;;;;;5095586;28;20061;-71
2022/07/19 00:43:10;;;;;;;5.10;3.28;;;25.40;97.90;;;;;;5093404;28;20111;-72
2022/07/19 00:45:37;;;;;;;5.82;4.43;;;25.40;98.30;;;;;;5094820;28;20020;-72
2022/07/19 00:48:04;;;;;;;4.13;3.60;;;25.40;98.60;;;;;;5076741;28;20117;-72
2022/07/19 00:50:30;;;;;;;6.63;4.05;;;25.40;98.70;;;;;;5077622;28;20270;-72
2022/07/19 00:53:00;;;;;;;5.70;3.63;;;25.40;99.00;;;;;;5079571;28;20044;-72
2022/07/19 00:55:31;;;;;;;5.60;4.22;;;25.30;99.20;;;;;;5079574;28;20516;-72
2022/07/19 00:57:58;;;;;;;8.77;4.25;;;25.30;99.40;;;;;;5091517;28;20028;-72
2022/07/19 01:00:25;;;;;;;8.93;4.18;;;25.30;99.90;;;;;;5085534;28;20100;-72
2022/07/19 01:02:52;;;;;;;7.50;4.20;;;25.30;99.90;;;;;;5092218;28;20027;-73
2022/07/19 01:05:18;;;;;;;8.27;4.70;;;25.20;99.90;;;;;;5086139;28;20016;-72
2022/07/19 01:07:44;;;;;;;11.27;4.55;;;25.20;99.90;;;;;;5094671;28;20020;-72
2022/07/19 01:10:13;;;;;;;5.38;4.50;;;25.20;99.90;;;;;;5090845;28;20073;-72
2022/07/19 01:12:39;;;;;;;6.07;4.22;;;25.20;99.90;;;;;;5096368;28;20032;-73
2022/07/19 01:15:14;;;;;;;6.90;4.78;;;25.20;99.90;;;;;;5096079;28;20025;-71
2022/07/19 01:17:40;;;;;;;6.07;4.50;;;25.20;99.90;;;;;;5098050;28;20074;-72
2022/07/19 01:20:07;;;;;;;5.28;4.50;;;25.10;99.90;;;;;;5096930;28;20471;-72
2022/07/19 01:22:33;;;;;;;6.90;4.35;;;25.00;99.90;;;;;;5080206;28;20027;-72
2022/07/19 01:24:59;;;;;;;5.82;4.63;;;25.00;99.90;;;;;;5082789;28;20024;-72
2022/07/19 01:27:25;;;;;;;7.35;4.68;;;25.00;99.90;;;;;;5082166;28;20024;-71
2022/07/19 01:29:50;;;;;;;7.88;4.53;;;25.00;99.90;;;;;;5085607;28;20052;-73
2022/07/19 01:32:16;;;;;;;5.55;4.03;;;24.90;99.90;;;;;;5094482;28;20048;-72
2022/07/19 01:34:42;;;;;;;5.43;4.22;;;24.90;99.90;;;;;;5088603;28;20488;-72
2022/07/19 01:37:08;;;;;;;8.05;4.30;;;24.80;99.90;;;;;;5091460;28;20028;-72
2022/07/19 01:39:34;;;;;;;6.03;4.28;;;24.80;99.90;;;;;;5090712;28;20028;-72
2022/07/19 01:41:59;;;;;;;6.57;4.80;;;24.80;99.90;;;;;;5093967;28;20502;-73
2022/07/19 01:44:25;;;;;;;9.55;4.55;;;24.80;99.90;;;;;;5092959;28;20146;-72
2022/07/19 01:46:51;;;;;;;5.18;4.70;;;24.70;99.90;;;;;;5097064;28;20032;-72
2022/07/19 01:49:17;;;;;;;7.22;5.07;;;24.70;99.90;;;;;;5096582;28;20370;-72
2022/07/19 01:51:43;;;;;;;9.20;4.60;;;24.60;99.90;;;;;;5089422;28;20149;-71
2022/07/19 01:54:08;;;;;;;8.38;4.88;;;24.60;99.90;;;;;;5080116;28;20168;-72
2022/07/19 01:56:34;;;;;;;8.43;4.50;;;24.60;99.90;;;;;;5080532;28;20024;-72
2022/07/19 01:59:00;;;;;;;8.55;5.47;;;24.60;99.90;;;;;;5083750;28;20391;-72
2022/07/19 02:01:26;;;;;;;9.48;5.15;;;24.60;99.90;;;;;;5082600;28;20031;-73
2022/07/19 02:03:51;;;;;;;10.27;5.68;;;24.60;99.90;;;;;;5083530;28;20031;-72
2022/07/19 02:06:17;;;;;;;7.05;5.15;;;24.50;99.90;;;;;;5086458;28;20028;-72
2022/07/19 02:08:43;;;;;;;11.15;5.53;;;24.50;99.90;;;;;;5086091;28;20012;-72
2022/07/19 02:13:53;;;;;;;10.73;5.75;;;24.40;99.90;;;;;;5090729;28;20035;-73
2022/07/19 02:16:19;;;;;;;6.43;5.60;;;24.40;99.90;;;;;;5098158;28;20029;-73
2022/07/19 02:18:45;;;;;;;10.18;5.82;;;24.30;99.90;;;;;;5095460;28;20024;-72
2022/07/19 02:21:11;;;;;;;8.35;6.07;;;24.30;99.90;;;;;;5086877;28;20028;-73
2022/07/19 02:23:36;;;;;;;6.95;5.68;;;24.30;99.90;;;;;;5078914;28;20016;-73
2022/07/19 02:26:02;;;;;;;11.57;6.18;;;24.30;99.90;;;;;;5080161;28;20108;-72
2022/07/19 02:28:28;;;;;;;8.20;6.43;;;24.30;99.90;;;;;;5082603;28;20024;-72
2022/07/19 02:30:54;;;;;;;7.00;6.30;;;24.20;99.90;;;;;;5086789;28;20059;-73
2022/07/19 02:33:20;;;;;;;9.68;7.00;;;24.20;99.90;;;;;;5096367;28;20024;-73
2022/07/19 02:35:45;;;;;;;9.10;6.18;;;24.20;99.90;;;;;;5087024;28;20077;-73
2022/07/19 02:38:11;;;;;;;8.55;5.32;;;24.20;99.90;;;;;;5090374;28;20024;-73
2022/07/19 02:40:37;;;;;;;7.13;6.43;;;24.20;99.90;;;;;;5090537;28;20027;-72
2022/07/19 02:43:03;;;;;;;8.07;6.95;;;24.20;99.90;;;;;;5091933;28;20388;-72
2022/07/19 02:45:29;;;;;;;8.57;6.20;;;24.10;99.90;;;;;;5093794;28;20031;-72
2022/07/19 02:47:54;;;;;;;9.52;6.30;;;24.10;99.90;;;;;;5092363;28;20055;-71
2022/07/19 02:50:20;;;;;;;8.13;6.90;;;24.10;99.90;;;;;;5096348;28;20034;-73
2022/07/19 02:52:46;;;;;;;9.45;6.15;;;24.00;99.90;;;;;;5092206;28;20052;-72
2022/07/19 02:55:12;;;;;;;7.07;6.40;;;23.90;99.90;;;;;;5078324;28;20024;-72
2022/07/19 02:57:38;;;;;;;7.47;5.85;;;23.90;99.90;;;;;;5080696;28;20034;-72
2022/07/19 03:00:09;;;;;;;13.02;7.63;;;23.90;99.90;;;;;;5079672;28;20048;-72
2022/07/19 03:02:35;;;;;;;7.40;6.50;;;23.90;99.90;;;;;;5083843;28;20028;-73
2022/07/19 03:05:01;;;;;;;7.88;7.05;;;23.80;99.90;;;;;;5086872;28;20027;-72
2022/07/19 03:07:27;;;;;;;8.60;6.80;;;23.80;99.90;;;;;;5086015;28;20031;-74
2022/07/19 03:09:53;;;;;;;7.85;7.10;;;23.80;99.90;;;;;;5084344;28;20020;-72
2022/07/19 03:12:18;;;;;;;8.60;7.03;;;23.80;99.90;;;;;;5088677;28;20045;-73
2022/07/19 03:14:44;;;;;;;11.52;6.90;;;23.80;99.90;;;;;;5086626;28;20048;-72
2022/07/19 03:17:10;;;;;;;7.13;6.28;;;23.80;99.90;;;;;;5091958;28;20122;-73
2022/07/19 03:19:36;;;;;;;9.20;7.35;;;23.80;99.90;;;;;;5090579;28;20066;-72
2022/07/19 03:22:02;;;;;;;9.23;6.90;;;23.80;99.90;;;;;;5091897;28;20023;-72
2022/07/19 03:24:28;;;;;;;9.48;7.38;;;23.80;99.90;;;;;;5094210;28;20058;-72
2022/07/19 03:26:53;;;;;;;8.05;7.03;;;23.70;99.90;;;;;;5095089;28;20020;-72
2022/07/19 03:29:19;;;;;;;9.88;6.15;;;23.70;99.90;;;;;;5085427;28;20025;-72
2022/07/19 03:31:46;;;;;;;10.73;7.10;;;23.80;99.90;;;;;;5091326;28;20024;-73
2022/07/19 03:34:12;;;;;;;10.85;6.53;;;23.80;99.90;;;;;;5082180;28;20147;-73
2022/07/19 03:36:38;;;;;;;10.07;6.60;;;23.70;99.90;;;;;;5089467;28;20060;-73
2022/07/19 03:39:04;;;;;;;9.13;6.78;;;23.70;99.90;;;;;;5088109;28;20020;-71
2022/07/19 03:41:30;;;;;;;8.63;6.68;;;23.70;99.90;;;;;;5091474;28;20024;-73
2022/07/19 03:43:56;;;;;;;17.60;6.82;;;23.70;99.90;;;;;;5090495;28;20054;-73
2022/07/19 03:46:22;;;;;;;8.52;5.78;;;23.70;99.90;;;;;;5093666;28;20032;-73
2022/07/19 03:48:48;;;;;;;10.20;5.90;;;23.80;99.90;;;;;;5093924;28;20024;-72
2022/07/19 03:51:14;;;;;;;9.05;5.93;;;23.70;99.90;;;;;;5094367;28;20438;-72
2022/07/19 03:53:40;;;;;;;7.40;6.68;;;23.70;99.90;;;;;;5085154;28;20049;-72
2022/07/19 03:56:06;;;;;;;8.90;6.70;;;23.70;99.90;;;;;;5079641;28;20388;-74
2022/07/19 03:58:32;;;;;;;7.95;6.32;;;23.70;99.90;;;;;;5079186;28;20021;-73
2022/07/19 04:00:58;;;;;;;7.13;6.40;;;23.70;99.90;;;;;;5083577;28;20174;-73
2022/07/19 04:03:24;;;;;;;7.53;6.72;;;23.70;99.90;;;;;;5081288;28;20082;-73
2022/07/19 04:05:50;;;;;;;7.93;6.70;;;23.70;99.90;;;;;;5087936;28;20030;-73
2022/07/19 04:08:16;;;;;;;7.75;6.95;;;23.60;99.90;;;;;;5083436;28;20091;-73
2022/07/19 04:10:42;;;;;;;10.63;6.70;;;23.60;99.90;;;;;;5089936;28;20509;-72
2022/07/19 04:13:08;;;;;;;8.77;7.07;;;23.60;99.90;;;;;;5087352;28;20024;-72
2022/07/19 04:15:34;;;;;;;7.47;6.70;;;23.60;99.90;;;;;;5092563;28;20031;-73
2022/07/19 04:17:59;;;;;;;6.95;6.22;;;23.50;99.90;;;;;;5089979;28;20066;-73
2022/07/19 04:20:25;;;;;;;7.65;6.43;;;23.50;99.90;;;;;;5092996;28;20016;-73
2022/07/19 04:22:51;;;;;;;7.38;6.25;;;23.50;99.90;;;;;;5094836;28;20028;-72
2022/07/19 04:25:17;;;;;;;6.95;6.07;;;23.50;99.90;;;;;;5109063;28;20088;-73
2022/07/19 04:27:43;;;;;;;9.85;6.63;;;23.50;99.90;;;;;;5075273;28;20107;-73
2022/07/19 04:30:09;;;;;;;7.78;5.82;;;23.50;99.90;;;;;;5078418;28;20070;-72
2022/07/19 04:32:35;;;;;;;8.20;6.55;;;23.50;99.90;;;;;;5088480;28;20553;-72
2022/07/19 04:35:02;;;;;;;11.10;6.50;;;23.50;99.90;;;;;;5093294;28;20024;-71
2022/07/19 04:37:27;;;;;;;11.63;6.55;;;23.40;99.90;;;;;;5090186;28;20020;-72
2022/07/19 04:39:53;;;;;;;8.50;6.22;;;23.40;99.90;;;;;;5093909;28;20028;-71
2022/07/19 04:42:19;;;;;;;8.52;6.80;;;23.40;99.90;;;;;;5093532;28;20026;-72
2022/07/19 04:44:45;;;;;;;9.73;6.30;;;23.40;99.90;;;;;;5095908;28;20031;-72
2022/07/19 04:47:11;;;;;;;7.85;5.88;;;23.40;99.90;;;;;;5098305;28;20066;-73
2022/07/19 04:49:37;;;;;;;7.88;6.63;;;23.40;99.90;;;;;;5097398;28;20491;-73
2022/07/19 04:52:03;;;;;;;7.32;6.10;;;23.40;99.90;;;;;;5098854;28;20121;-72
2022/07/19 04:54:29;;;;;;;9.00;6.13;;;23.40;99.90;;;;;;5097415;28;20028;-72
2022/07/19 04:56:55;;;;;;;8.38;6.65;;;23.40;99.90;;;;;;5097549;28;20024;-73
2022/07/19 04:59:21;;;;;;;13.60;6.28;;;23.50;99.90;;;;;;5097319;28;20016;-72
2022/07/19 05:01:46;;;;;;;7.05;6.35;;;23.50;99.90;;;;;;5097906;28;20024;-73
2022/07/19 05:04:12;;;;;;;8.13;6.47;;;23.50;99.90;;;;;;5098864;28;20050;-72
2022/07/19 05:06:38;;;;;;;8.98;6.85;;;23.50;99.90;;;;;;5098851;28;20077;-72
2022/07/19 05:09:04;;;;;;;6.65;6.00;;;23.50;99.90;;;;;;5098563;28;20031;-72
2022/07/19 05:11:30;;;;;;;8.50;5.95;;;23.60;99.90;;;;;;5098686;28;20032;-73
2022/07/19 05:13:55;;;;;;;7.55;6.75;;;23.60;99.90;;;;;;5097282;28;20028;-72
2022/07/19 05:16:21;;;;;;;8.35;6.05;;;23.60;99.90;;;;;;5098578;28;20040;-72
2022/07/19 05:18:47;;;;;;;7.35;6.65;;;23.70;99.90;;;;;;5098139;28;20017;-72
2022/07/19 05:21:13;;;;;;;7.28;6.57;;;23.70;99.90;;;;;;5097219;28;20020;-72
2022/07/19 05:23:41;;;;;;;8.38;5.68;;;23.70;99.90;;;;;;5098506;28;20039;-74
2022/07/19 05:26:07;;;;;;;9.68;7.00;;;23.80;99.90;;;;;;5097119;28;20024;-72
2022/07/19 05:28:33;;;;;;;7.35;6.38;;;23.80;99.90;;;;;;5098393;28;20472;-71
2022/07/19 05:30:59;;;;;;;15.38;7.20;;;23.80;99.90;;;;;;5096474;28;20059;-71
2022/07/19 05:33:28;;;;;;;10.68;6.22;;;23.90;99.90;;;;;;5097753;28;20020;-72
2022/07/19 05:35:54;;;;;;;11.38;6.78;;;23.90;99.90;;;;;;5097061;28;20081;-72
2022/07/19 05:38:20;;;;;;;6.65;6.05;;;24.00;99.90;;;;;;5096742;28;20013;-72
2022/07/19 05:40:47;;;;;;;9.00;6.78;;;24.00;99.90;;;;;;5098416;28;20023;-72
2022/07/19 05:43:13;;;;;;;10.20;6.55;;;24.10;99.90;;;;;;5091219;28;20392;-73
2022/07/19 05:45:40;;;;;;;6.43;5.65;;;24.10;99.90;;;;;;5088097;28;20437;-73
2022/07/19 05:48:06;;;;;;;10.15;6.60;;;24.20;99.90;;;;;;5098342;28;20016;-73
2022/07/19 05:50:32;;;;;;;6.55;5.85;;;24.20;99.90;;;;;;5085410;28;20035;-72
2022/07/19 05:52:58;;;;;;;6.20;5.55;;;24.30;99.90;;;;;;5091614;28;20044;-73
2022/07/19 05:55:24;;;;;;;8.77;5.70;;;24.40;99.90;;;;;;5090806;28;20078;-73
2022/07/19 05:57:49;;;;;;;8.52;5.43;;;24.40;99.90;;;;;;5091155;28;20027;-73
2022/07/19 06:00:15;;;;;;;8.65;6.10;;;24.40;99.90;;;;;;5093583;28;20032;-72
2022/07/19 06:02:41;;;;;;;9.57;6.40;;;24.50;99.90;;;;;;5097177;28;20020;-72
2022/07/19 06:05:08;;;;;;;5.97;5.28;;;24.60;99.90;;;;;;5095419;28;20020;-73
2022/07/19 06:07:33;;;;;;;8.57;5.68;;;24.60;99.90;;;;;;5098796;28;20028;-72
2022/07/19 06:10:01;;;;;;;10.02;5.50;;;24.70;99.90;;;;;;5094761;28;20154;-72
2022/07/19 06:12:27;;;;;;;10.15;5.63;;;24.80;99.90;;;;;;5092108;28;20496;-72
2022/07/19 06:14:53;;;;;;;7.75;5.47;;;24.90;99.90;;;;;;5093330;28;20044;-73
2022/07/19 06:17:19;;;;;;;7.28;5.55;;;25.00;99.90;;;;;;5093865;28;20016;-72
2022/07/19 06:19:45;;;;;;;9.73;5.90;;;25.00;99.90;;;;;;5090930;28;20048;-72
2022/07/19 06:22:10;;;;;;;10.30;5.47;;;25.10;99.90;;;;;;5097995;28;20043;-72
2022/07/19 06:24:36;;;;;;;7.65;5.82;;;25.10;99.90;;;;;;5097606;28;20387;-72
2022/07/19 06:27:02;;;;;;;10.25;4.72;;;25.00;99.90;;;;;;5096455;28;20024;-73
2022/07/19 06:29:28;;;;;;;12.60;5.22;;;25.10;99.90;;;;;;5085214;28;20020;-73
2022/07/19 06:31:54;;;;;;;6.95;5.22;;;25.20;99.90;;;;;;5076355;28;20008;-73
2022/07/19 06:34:19;;;;;;;8.52;5.40;;;25.20;99.90;;;;;;5079818;28;20033;-74
2022/07/19 06:36:45;;;;;;;9.05;5.82;;;25.30;99.90;;;;;;5084122;28;20051;-73
2022/07/19 06:39:11;;;;;;;8.20;4.90;;;25.30;99.90;;;;;;5089317;28;20028;-74
2022/07/19 06:41:37;;;;;;;9.93;5.70;;;25.40;99.90;;;;;;5089457;28;20016;-73
2022/07/19 06:44:03;;;;;;;12.65;6.03;;;25.40;99.90;;;;;;5083163;28;20025;-74
2022/07/19 06:46:29;;;;;;;7.00;5.63;;;25.30;99.90;;;;;;5091554;28;20085;-74
2022/07/19 06:48:54;;;;;;;10.95;5.18;;;25.30;99.90;;;;;;5087936;28;20027;-73
2022/07/19 06:51:20;;;;;;;5.72;5.05;;;25.40;99.90;;;;;;5086097;28;20028;-73
2022/07/19 06:53:46;;;;;;;7.68;5.25;;;25.40;99.90;;;;;;5093539;28;20484;-74
2022/07/19 06:56:12;;;;;;;6.43;5.15;;;25.30;99.90;;;;;;5087697;28;20088;-74
2022/07/19 06:58:37;;;;;;;10.30;5.95;;;25.20;99.90;;;;;;5094021;28;20046;-74
2022/07/19 07:01:03;;;;;;;7.00;5.97;;;25.20;99.90;;;;;;5086414;28;20024;-74
2022/07/19 07:03:29;;;;;;;7.85;5.35;;;25.10;99.90;;;;;;5095823;28;20032;-73
2022/07/19 07:05:55;;;;;;;8.07;5.65;;;25.10;99.90;;;;;;5096104;28;20023;-74
2022/07/19 07:08:21;;;;;;;10.43;6.03;;;25.20;99.90;;;;;;5096924;28;20403;-73
2022/07/19 07:10:47;;;;;;;6.15;5.07;;;25.20;99.90;;;;;;5091173;28;20019;-75
2022/07/19 07:13:12;;;;;;;5.68;5.03;;;25.40;99.90;;;;;;5086257;28;20487;-73
2022/07/19 07:15:39;;;;;;;8.50;5.72;;;25.50;99.90;;;;;;5093100;28;20510;-73
2022/07/19 07:18:05;;;;;;;8.05;5.05;;;25.50;99.90;;;;;;5092790;28;20047;-73
2022/07/19 07:20:33;;;;;;;15.90;5.85;;;25.40;99.90;;;;;;5091594;28;20020;-79
2022/07/19 07:23:00;;;;;;;5.32;4.82;;;25.40;99.90;;;;;;5074809;28;20111;-72
2022/07/19 07:25:25;;;;;;;8.63;5.80;;;25.40;99.90;;;;;;5095834;28;20092;-73
2022/07/19 07:27:51;;;;;;;7.80;5.80;;;25.50;99.90;;;;;;5096515;28;20059;-73
2022/07/19 07:30:17;;;;;;;9.75;6.07;;;25.50;99.90;;;;;;5094832;28;20477;-73
2022/07/19 07:32:43;;;;;;;10.50;4.88;;;25.60;99.90;;;;;;5108391;28;20379;-73
2022/07/19 07:35:09;;;;;;;7.70;5.63;;;25.70;99.90;;;;;;5081845;28;20059;-73
2022/07/19 07:37:34;;;;;;;6.38;4.65;;;25.70;99.90;;;;;;5088122;28;20025;-72
2022/07/19 07:40:01;;;;;;;7.47;5.60;;;25.70;99.90;;;;;;5085744;28;20122;-74
2022/07/19 07:42:30;;;;;;;7.55;5.20;;;25.60;99.90;;;;;;5081381;28;20025;-74
2022/07/19 07:44:55;;;;;;;8.73;5.57;;;25.70;99.90;;;;;;5079054;28;20499;-73
2022/07/19 07:47:21;;;;;;;7.75;5.40;;;25.70;99.90;;;;;;5090145;28;20025;-74
2022/07/19 07:49:49;;;;;;;9.60;4.90;;;25.70;99.90;;;;;;5089554;28;20099;-75
2022/07/19 07:52:15;;;;;;;6.95;4.93;;;25.70;99.90;;;;;;5090020;28;20048;-74
2022/07/19 07:54:41;;;;;;;6.68;4.72;;;25.70;99.90;;;;;;5088215;28;20032;-74
2022/07/19 07:57:08;;;;;;;7.50;5.45;;;25.80;99.90;;;;;;5076565;28;20024;-74
2022/07/19 07:59:34;;;;;;;10.40;5.25;;;25.80;99.90;;;;;;5078192;28;20017;-74
2022/07/19 08:02:00;;;;;;;6.18;4.60;;;25.90;99.90;;;;;;5079233;28;20032;-75
2022/07/19 08:04:26;;;;;;;10.32;5.10;;;26.00;99.90;;;;;;5087660;28;20021;-74
2022/07/19 08:06:52;;;;;;;6.90;4.82;;;26.00;99.90;;;;;;5093153;28;20377;-75
2022/07/19 08:09:18;;;;;;;6.35;4.70;;;25.90;99.90;;;;;;5098867;28;20028;-73
2022/07/19 08:11:44;;;;;;;7.28;5.15;;;25.90;99.90;;;;;;5087300;28;20563;-75
2022/07/19 08:14:10;;;;;;;7.75;5.18;;;26.00;99.90;;;;;;5091464;28;20663;-74
2022/07/19 08:16:36;;;;;;;8.38;5.25;;;26.10;99.90;;;;;;5093890;28;20059;-74
2022/07/19 08:19:02;;;;;;;12.25;5.85;;;26.20;99.90;;;;;;5098907;28;20379;-74
2022/07/19 08:21:28;;;;;;;8.10;5.35;;;26.10;99.90;;;;;;5098367;28;20051;-74
2022/07/19 08:23:53;;;;;;;8.27;4.45;;;26.20;99.90;;;;;;5094515;28;20027;-73
2022/07/19 08:26:20;;;;;;;6.82;4.97;;;26.40;99.90;;;;;;5082778;28;20477;-73
2022/07/19 08:28:47;;;;;;;7.07;5.00;;;26.40;99.90;;;;;;5085092;28;20020;-74
2022/07/19 08:31:14;;;;;;;7.35;4.65;;;26.50;99.90;;;;;;5085143;28;20024;-73
2022/07/19 08:33:41;;;;;;;8.55;5.22;;;26.50;99.90;;;;;;5088487;28;20023;-74
2022/07/19 08:36:09;;;;;;;8.38;5.00;;;26.50;99.90;;;;;;5086370;28;20392;-75
2022/07/19 08:38:36;;;;;;;7.07;5.03;;;26.50;99.90;;;;;;5091928;28;20025;-73
2022/07/19 08:41:02;;;;;;;6.10;5.43;;;26.60;99.90;;;;;;5095372;28;20103;-74
2022/07/19 08:43:28;;;;;;;8.63;5.32;;;26.70;99.90;;;;;;5095928;28;20472;-74
2022/07/19 08:45:57;;;;;;;7.72;5.47;;;26.60;99.90;;;;;;5093123;28;20021;-74
2022/07/19 08:48:23;;;;;;;7.32;4.72;;;26.50;99.90;;;;;;5097620;28;20027;-74
2022/07/19 08:50:52;;;;;;;9.93;5.65;;;26.60;99.90;;;;;;5097346;28;20077;-74
2022/07/19 08:53:18;;;;;;;8.23;5.60;;;26.70;99.90;;;;;;5099466;28;20040;-75
2022/07/19 08:55:44;;;;;;;8.95;5.53;;;26.80;99.90;;;;;;5084469;28;20024;-74
2022/07/19 08:58:10;;;;;;;9.50;4.90;;;26.90;99.90;;;;;;5080054;28;20027;-74
2022/07/19 09:00:35;;;;;;;11.18;5.60;;;27.00;99.90;;;;;;5084962;28;20032;-74
2022/07/19 09:03:06;;;;;;;7.53;5.22;;;26.90;99.90;;;;;;5083451;28;20097;-75
2022/07/19 09:05:33;;;;;;;7.03;5.00;;;26.90;99.90;;;;;;5087310;28;20469;-75
2022/07/19 09:08:09;;;;;;;9.27;5.07;;;27.00;99.90;;;;;;5086294;28;20065;-73
2022/07/19 09:10:41;;;;;;;6.55;4.75;;;27.10;99.90;;;;;;5090678;28;20024;-74
2022/07/19 09:13:15;;;;;;;7.13;5.45;;;27.30;99.90;;;;;;5091523;28;20024;-73
2022/07/19 09:15:49;;;;;;;9.10;5.10;;;27.30;99.90;;;;;;5096085;28;20027;-73
2022/07/19 09:18:20;;;;;;;10.98;5.43;;;27.40;99.90;;;;;;5090874;28;20036;-74
2022/07/19 09:20:48;;;;;;;7.90;5.20;;;27.70;99.90;;;;;;5095719;28;20035;-73
2022/07/19 09:23:15;;;;;;;9.68;4.90;;;28.00;99.90;;;;;;5096008;28;20545;-73
2022/07/19 09:25:51;;;;;;;8.57;5.25;;;28.10;99.90;;;;;;5099101;28;20035;-73
2022/07/19 09:28:19;;;;;;;6.43;5.05;;;28.30;99.90;;;;;;5096452;28;20020;-74
2022/07/19 09:30:47;;;;;;;9.98;5.55;;;28.30;99.90;;;;;;5080587;28;20035;-73
2022/07/19 09:33:17;;;;;;;7.55;4.53;;;28.60;99.90;;;;;;5111284;28;20400;-74
2022/07/19 09:35:46;;;;;;;6.70;5.00;;;28.60;99.90;;;;;;5082644;28;20080;-73
2022/07/19 09:38:16;;;;;;;7.70;5.28;;;28.70;99.90;;;;;;5097219;28;20020;-74
2022/07/19 09:40:42;;;;;;;7.47;4.87;;;28.70;99.90;;;;;;5084575;28;20036;-73
2022/07/19 09:43:07;;;;;;;8.85;5.05;;;28.80;99.90;;;;;;5089323;28;20024;-74
2022/07/19 09:45:33;;;;;;;6.97;5.32;;;28.90;99.90;;;;;;5086937;28;20020;-74
2022/07/19 09:48:00;;;;;;;10.07;5.70;;;28.90;99.90;;;;;;5092117;28;20093;-74
2022/07/19 09:50:26;;;;;;;7.35;5.10;;;29.10;99.90;;;;;;5090833;28;20027;-74
2022/07/19 09:52:52;;;;;;;8.07;5.45;;;29.20;99.90;;;;;;5094426;28;20123;-73
2022/07/19 09:55:19;;;;;;;6.25;5.43;;;29.30;99.90;;;;;;5092728;28;20051;-74
2022/07/19 09:57:47;;;;;;;8.48;4.88;;;29.40;99.90;;;;;;5095486;28;20027;-73
2022/07/19 10:00:15;;;;;;;10.70;5.43;;;29.30;99.90;;;;;;5096651;28;20076;-73
2022/07/19 10:02:43;;;;;;;10.07;6.13;;;29.50;99.90;;;;;;5092464;28;20555;-73
2022/07/19 10:05:11;;;;;;;8.13;5.53;;;29.50;99.90;;;;;;5079085;28;20492;-73
2022/07/19 10:07:37;;;;;;;9.50;5.85;;;29.50;99.90;;;;;;5097273;28;20058;-73
2022/07/19 10:10:05;;;;;;;7.38;5.28;;;29.60;99.90;;;;;;5093618;28;20451;-73
2022/07/19 10:12:32;;;;;;;8.25;5.45;;;29.80;99.90;;;;;;5089689;28;20035;-73
2022/07/19 10:14:58;;;;;;;7.32;5.15;;;29.90;99.90;;;;;;5092047;28;20030;-74
2022/07/19 10:17:33;;;;;;;9.63;5.18;;;30.20;99.90;;;;;;5080485;28;20099;-74
2022/07/19 10:20:01;;;;;;;5.60;4.90;;;30.30;99.90;;;;;;5082317;28;20012;-75
2022/07/19 10:22:28;;;;;;;7.38;5.78;;;30.30;99.90;;;;;;5087661;28;20136;-74
2022/07/19 10:24:59;;;;;;;8.43;4.63;;;30.00;99.90;;;;;;5089652;28;20384;-75
2022/07/19 10:27:25;;;;;;;7.88;5.25;;;29.90;99.90;;;;;;5086843;28;20025;-74
2022/07/19 10:29:57;;;;;;;8.40;4.55;;;30.30;99.90;;;;;;5085654;28;20108;-75
2022/07/19 10:32:30;;;;;;;12.55;4.57;;;30.60;99.90;;;;;;5089495;28;20414;-74
2022/07/19 10:35:16;;;;;;;9.25;5.30;;;30.90;99.90;;;;;;5089386;28;20020;-74
2022/07/19 10:37:44;;;;;;;7.85;4.65;;;31.20;99.90;;;;;;5088608;28;20020;-74
2022/07/19 10:40:10;;;;;;;7.20;4.43;;;31.00;99.90;;;;;;5096087;28;20111;-73
2022/07/19 10:42:36;;;;;;;6.00;4.40;;;31.00;99.90;;;;;;5093375;28;20028;-74
2022/07/19 10:45:02;;;;;;;6.85;4.75;;;31.20;99.90;;;;;;5097690;28;20024;-74
2022/07/19 10:47:39;;;;;;;9.25;4.80;;;31.20;99.90;;;;;;5084393;28;20098;-74
2022/07/19 10:50:14;;;;;;;8.77;4.50;;;31.30;99.90;;;;;;5078648;28;20024;-74
2022/07/19 10:52:49;;;;;;;7.03;4.50;;;31.30;99.90;;;;;;5121681;27;20409;-74
2022/07/19 10:57:45;;;;;;;9.80;4.95;;;31.00;99.90;;;;;;5114880;28;20479;-76
2022/07/19 11:00:31;;;;;;;8.73;4.28;;;31.00;99.90;;;;;;5114868;28;20019;-74
2022/07/19 11:03:22;;;;;;;9.43;4.45;;;31.00;99.90;;;;;;5109850;28;20020;-75
2022/07/19 11:05:55;;;;;;;6.03;3.88;;;30.80;99.90;;;;;;5113398;28;20102;-74
2022/07/19 11:08:39;;;;;;;8.68;4.50;;;31.00;99.90;;;;;;5114776;28;20475;-76
2022/07/19 11:11:09;;;;;;;7.35;4.07;;;31.00;99.90;;;;;;5114548;28;20024;-75
2022/07/19 11:13:37;;;;;;;5.47;4.40;;;31.00;99.90;;;;;;5114449;28;20032;-75
2022/07/19 11:16:03;;;;;;;8.13;5.13;;;31.30;99.90;;;;;;5114331;28;20073;-75
2022/07/19 11:18:30;;;;;;;8.80;4.10;;;31.30;99.90;;;;;;5113824;28;20103;-75
2022/07/19 11:21:01;;;;;;;5.85;4.43;;;31.30;99.90;;;;;;5114536;28;20055;-75
2022/07/19 11:23:36;;;;;;;6.15;4.68;;;31.70;99.90;;;;;;5114257;28;20019;-75
2022/07/19 11:26:12;;;;;;;9.07;4.70;;;31.70;99.90;;;;;;5113017;28;20035;-75
2022/07/19 11:28:40;;;;;;;4.90;4.07;;;31.90;99.90;;;;;;5114207;28;20067;-76
2022/07/19 11:31:17;;;;;;;8.90;4.22;;;32.00;99.90;;;;;;5114015;28;20399;-76
2022/07/19 11:33:45;;;;;;;8.55;3.90;;;32.10;99.90;;;;;;5108301;28;20038;-76
2022/07/19 11:36:13;;;;;;;7.63;3.92;;;32.10;99.90;;;;;;5114073;28;20047;-75
2022/07/19 11:38:48;;;;;;;12.93;4.50;;;32.10;99.90;;;;;;5114035;28;20032;-77
2022/07/19 11:41:18;;;;;;;11.77;3.92;;;32.10;99.90;;;;;;5113883;28;20019;-76
2022/07/19 11:43:56;;;;;;;5.70;4.30;;;32.10;99.90;;;;;;5115127;28;20059;-75
2022/07/19 11:46:24;;;;;;;11.13;4.40;;;32.00;99.90;;;;;;5113787;28;20020;-76
2022/07/19 11:48:56;;;;;;;6.35;4.05;;;32.00;99.90;;;;;;5115551;28;20028;-77
2022/07/19 11:51:22;;;;;;;4.78;3.97;;;32.00;99.90;;;;;;5112137;28;20038;-75
2022/07/19 11:53:51;;;;;;;6.93;3.78;;;31.90;99.90;;;;;;5113808;28;20103;-76
2022/07/19 11:56:27;;;;;;;5.53;3.78;;;32.10;99.90;;;;;;5112098;28;20016;-76
2022/07/19 11:58:56;;;;;;;5.70;3.50;;;32.00;99.50;;;;;;5113630;28;20039;-76
2022/07/19 12:01:30;;;;;;;5.10;3.97;;;32.10;99.80;;;;;;5113533;28;20089;-76
2022/07/19 12:04:03;;;;;;;7.63;3.67;;;32.30;99.70;;;;;;5100904;28;20420;-75
2022/07/19 12:06:42;;;;;;;6.68;3.58;;;32.40;99.00;;;;;;5098520;28;20507;-75
2022/07/19 12:09:12;;;;;;;5.18;3.72;;;32.60;98.70;;;;;;5099948;28;20099;-77
2022/07/19 12:11:43;;;;;;;6.47;3.78;;;32.60;97.90;;;;;;5099805;28;20024;-77
2022/07/19 12:14:24;;;;;;;5.70;3.90;;;32.60;97.90;;;;;;5090685;28;20381;-77
2022/07/19 12:17:11;;;;;;;8.25;3.85;;;32.60;97.90;;;;;;5098176;28;20476;-77
2022/07/19 12:19:38;;;;;;;7.07;3.63;;;32.70;97.40;;;;;;5099685;28;20024;-76
2022/07/19 12:22:04;;;;;;;8.25;3.63;;;32.80;96.90;;;;;;5099510;28;20107;-76
2022/07/19 12:24:30;;;;;;;8.02;4.03;;;32.90;97.10;;;;;;5099635;28;20102;-77
2022/07/19 12:27:05;;;;;;;8.30;3.25;;;33.00;97.00;;;;;;5099432;28;20023;-76
2022/07/19 12:29:38;;;;;;;11.63;4.05;;;33.10;97.00;;;;;;5099392;28;20027;-77
2022/07/19 12:32:09;;;;;;;5.68;3.13;;;33.10;97.20;;;;;;5095419;28;20020;-76
2022/07/19 12:34:56;;;;;;;6.88;3.58;;;33.00;97.10;;;;;;5099155;28;20048;-76
2022/07/19 12:37:37;;;;;;;5.63;3.85;;;33.00;96.60;;;;;;5099427;28;20020;-76
2022/07/19 12:40:05;;;;;;;7.00;3.85;;;32.90;96.40;;;;;;5099173;28;20020;-76
2022/07/19 12:42:59;;;;;;;8.82;3.30;;;33.00;96.00;;;;;;5097717;28;20020;-77
2022/07/19 12:45:27;;;;;;;6.22;3.60;;;33.00;96.60;;;;;;5099034;28;20054;-76
2022/07/19 12:47:54;;;;;;;7.72;3.33;;;33.10;96.30;;;;;;5098817;28;20020;-76
2022/07/19 12:50:24;;;;;;;7.28;3.60;;;33.30;95.90;;;;;;5099073;28;20027;-77
2022/07/19 12:52:52;;;;;;;6.03;4.13;;;33.40;95.70;;;;;;5097238;28;20126;-76